createdAt,value
2023-01-29T00:01:36.055Z,102627.72
2023-01-29T00:06:51.987Z,102630.78
2023-01-29T00:12:06.991Z,102637.59
2023-01-29T00:17:22.065Z,102635.59
2023-01-29T00:22:36.762Z,102611.81
2023-01-29T00:27:51.955Z,102612.25
2023-01-29T00:33:06.999Z,102590.53
2023-01-29T00:38:21.975Z,102593.31
2023-01-29T00:43:38.284Z,102579.88
2023-01-29T00:48:54.004Z,102580.66
2023-01-29T00:54:09.433Z,102594.84
2023-01-29T00:59:25.293Z,102595.59
2023-01-29T01:04:41.240Z,102584.19
2023-01-29T01:09:57.007Z,102591.28
2023-01-29T01:15:11.996Z,102588.53
2023-01-29T01:20:26.964Z,102584.19
2023-01-29T01:25:42.367Z,102573.84
2023-01-29T01:30:58.140Z,102569.06
2023-01-29T01:36:12.950Z,102569.06
2023-01-29T01:41:28.293Z,102567.53
2023-01-29T01:46:43.983Z,102578.94
2023-01-29T01:51:58.994Z,102576.91
2023-01-29T01:57:13.971Z,102592.81
2023-01-29T02:02:29.282Z,102588.03
2023-01-29T02:07:45.101Z,102577.72
2023-01-29T02:13:00.027Z,102577.41
2023-01-29T02:18:15.011Z,102576.91
2023-01-29T02:23:30.130Z,102572.00
2023-01-29T02:28:45.072Z,102575.88
2023-01-29T02:33:59.973Z,102573.84
2023-01-29T02:39:15.229Z,102578.19
2023-01-29T02:44:32.344Z,102571.53
2023-01-29T02:49:48.309Z,102576.63
2023-01-29T02:55:04.067Z,102580.50
2023-01-29T03:00:19.172Z,102582.47
2023-01-29T03:05:35.283Z,102581.41
2023-01-29T03:10:50.956Z,102577.41
2023-01-29T03:16:06.041Z,102578.63
2023-01-29T03:21:25.016Z,102577.41
2023-01-29T03:26:40.267Z,102567.53
2023-01-29T03:31:59.020Z,102551.66
2023-01-29T03:37:14.039Z,102546.09
2023-01-29T03:42:29.305Z,102542.53
2023-01-29T03:47:45.145Z,102523.09
2023-01-29T03:53:01.082Z,102529.88
2023-01-29T03:58:16.011Z,102520.31
2023-01-29T04:03:31.978Z,102530.66
2023-01-29T04:08:49.029Z,102520.78
2023-01-29T04:14:03.988Z,102518.78
2023-01-29T04:19:19.048Z,102512.00
2023-01-29T04:24:34.505Z,102499.34
2023-01-29T04:29:50.050Z,102481.91
2023-01-29T04:35:05.099Z,102487.47
2023-01-29T04:40:20.320Z,102496.28
2023-01-29T04:45:35.847Z,102488.69
2023-01-29T04:50:51.317Z,102484.69
2023-01-29T04:56:06.846Z,102483.44
2023-01-29T05:01:22.014Z,102467.25
2023-01-29T05:06:37.009Z,102473.13
2023-01-29T05:11:52.253Z,102462.00
2023-01-29T05:17:08.333Z,102454.91
2023-01-29T05:22:23.991Z,102465.75
2023-01-29T05:27:39.319Z,102460.19
2023-01-29T05:32:55.078Z,102471.28
2023-01-29T05:38:09.760Z,102481.13
2023-01-29T05:43:24.793Z,102485.19
2023-01-29T05:48:40.021Z,102482.41
2023-01-29T05:53:55.050Z,102491.16
2023-01-29T05:59:10.362Z,102482.84
2023-01-29T06:04:26.361Z,102466.19
2023-01-29T06:09:42.047Z,102454.28
2023-01-29T06:14:57.344Z,102457.84
2023-01-29T06:20:12.978Z,102443.19
2023-01-29T06:25:28.022Z,102445.53
2023-01-29T06:30:43.309Z,102431.16
2023-01-29T06:35:58.958Z,102432.69
2023-01-29T06:41:14.086Z,102426.38
2023-01-29T06:46:29.005Z,102442.25
2023-01-29T06:51:44.055Z,102438.25
2023-01-29T06:56:59.247Z,102446.13
2023-01-29T07:02:15.084Z,102438.88
2023-01-29T07:07:30.068Z,102430.84
2023-01-29T07:12:45.000Z,102430.84
2023-01-29T07:17:59.987Z,102440.41
2023-01-29T07:23:15.024Z,102432.06
2023-01-29T07:28:30.282Z,102430.84
2023-01-29T07:33:46.001Z,102421.25
2023-01-29T07:39:01.021Z,102427.56
2023-01-29T07:44:16.023Z,102433.44
2023-01-29T07:49:31.018Z,102423.09
2023-01-29T07:54:45.988Z,102426.06
2023-01-29T08:00:01.077Z,102404.75
2023-01-29T08:05:21.347Z,102390.84
2023-01-29T08:10:36.772Z,102386.56
2023-01-29T08:15:52.051Z,102387.03
2023-01-29T08:21:07.008Z,102403.97
2023-01-29T08:26:22.399Z,102407.25
2023-01-29T08:31:38.084Z,102392.41
2023-01-29T08:36:53.050Z,102382.09
2023-01-29T08:42:08.011Z,102370.97
2023-01-29T08:47:22.983Z,102363.41
2023-01-29T08:52:37.848Z,102351.97
2023-01-29T08:57:53.327Z,102362.03
2023-01-29T09:03:09.005Z,102357.72
2023-01-29T09:08:23.984Z,102366.34
2023-01-29T09:13:39.067Z,102356.69
2023-01-29T09:18:54.043Z,102359.88
2023-01-29T09:24:09.094Z,102362.41
2023-01-29T09:29:23.904Z,102365.63
2023-01-29T09:34:38.968Z,102355.75
2023-01-29T09:39:54.097Z,102358.06
2023-01-29T09:45:09.061Z,102357.78
2023-01-29T09:50:23.857Z,102349.91
2023-01-29T09:55:38.995Z,102351.59
2023-01-29T10:00:53.986Z,102353.16
2023-01-29T10:06:09.121Z,102347.59
2023-01-29T10:11:23.986Z,102345.28
2023-01-29T10:16:40.042Z,102348.06
2023-01-29T10:21:55.041Z,102349.59
2023-01-29T10:27:10.238Z,102350.72
2023-01-29T10:32:26.009Z,102348.38
2023-01-29T10:37:41.040Z,102341.28
2023-01-29T10:42:56.245Z,102338.97
2023-01-29T10:48:12.010Z,102324.63
2023-01-29T10:53:27.064Z,102302.88
2023-01-29T10:58:42.032Z,102296.84
2023-01-29T11:03:57.039Z,102289.00
2023-01-29T11:09:13.210Z,102277.88
2023-01-29T11:14:29.026Z,102267.56
2023-01-29T11:19:44.039Z,102263.38
2023-01-29T11:24:59.103Z,102258.28
2023-01-29T11:30:14.178Z,102245.84
2023-01-29T11:35:30.048Z,102249.53
2023-01-29T11:40:45.049Z,102240.94
2023-01-29T11:46:00.013Z,102237.13
2023-01-29T11:51:15.037Z,102235.56
2023-01-29T11:56:30.020Z,102222.91
2023-01-29T12:01:45.027Z,102209.22
2023-01-29T12:07:00.089Z,102194.75
2023-01-29T12:12:15.065Z,102192.28
2023-01-29T12:17:30.003Z,102191.50
2023-01-29T12:22:44.982Z,102180.09
2023-01-29T12:28:00.033Z,102173.47
2023-01-29T12:33:15.382Z,102163.16
2023-01-29T12:38:31.298Z,102149.78
2023-01-29T12:43:47.100Z,102141.91
2023-01-29T12:49:02.322Z,102129.25
2023-01-29T12:54:18.405Z,102118.91
2023-01-29T12:59:34.109Z,102098.47
2023-01-29T13:04:48.811Z,102095.69
2023-01-29T13:10:04.113Z,102074.72
2023-01-29T13:15:19.395Z,102068.41
2023-01-29T13:20:35.034Z,102058.53
2023-01-29T13:25:50.101Z,102043.16
2023-01-29T13:31:04.851Z,102039.31
2023-01-29T13:36:20.432Z,102024.66
2023-01-29T13:41:36.343Z,102012.78
2023-01-29T13:46:52.066Z,101997.13
2023-01-29T13:52:07.355Z,101991.88
2023-01-29T13:57:23.030Z,101990.34
2023-01-29T14:02:38.097Z,101989.56
2023-01-29T14:07:53.022Z,101990.34
2023-01-29T14:13:07.836Z,101988.03
2023-01-29T14:19:02.069Z,101989.28
2023-01-29T14:24:17.024Z,101980.94
2023-01-29T14:29:35.055Z,101982.19
2023-01-29T14:34:51.355Z,101973.88
2023-01-29T14:40:07.020Z,101970.31
2023-01-29T14:45:22.067Z,101963.25
2023-01-29T14:50:37.373Z,101970.81
2023-01-29T14:55:53.083Z,101954.16
2023-01-29T15:01:08.046Z,101945.06
2023-01-29T15:06:22.777Z,101940.78
2023-01-29T15:11:38.018Z,101931.97
2023-01-29T15:16:53.129Z,101927.66
2023-01-29T15:22:08.071Z,101925.66
2023-01-29T15:27:23.423Z,101911.78
2023-01-29T15:32:39.157Z,101908.75
2023-01-29T15:37:53.813Z,101915.06
2023-01-29T15:43:09.084Z,101901.19
2023-01-29T15:48:24.336Z,101898.41
2023-01-29T15:53:40.333Z,101883.78
2023-01-29T15:58:56.024Z,101882.53
2023-01-29T16:04:11.399Z,101884.81
2023-01-29T16:09:27.019Z,101887.59
2023-01-29T16:14:41.853Z,101893.13
2023-01-29T16:19:57.048Z,101883.56
2023-01-29T16:25:12.088Z,101881.84
2023-01-29T16:30:27.083Z,101869.50
2023-01-29T16:35:41.822Z,101874.09
2023-01-29T16:40:56.808Z,101876.84
2023-01-29T16:46:12.136Z,101876.19
2023-01-29T16:51:26.954Z,101868.66
2023-01-29T16:56:42.080Z,101861.38
2023-01-29T17:01:57.054Z,101852.88
2023-01-29T17:07:12.014Z,101853.63
2023-01-29T17:12:27.494Z,101848.34
2023-01-29T17:17:43.083Z,101855.72
2023-01-29T17:22:59.072Z,101857.53
2023-01-29T17:28:14.194Z,101851.97
2023-01-29T17:33:29.094Z,101845.44
2023-01-29T17:38:43.796Z,101834.66
2023-01-29T17:43:58.774Z,101845.00
2023-01-29T17:49:14.088Z,101838.47
2023-01-29T17:54:28.818Z,101817.25
2023-01-29T17:59:43.847Z,101812.25
2023-01-29T18:04:59.161Z,101796.66
2023-01-29T18:10:14.115Z,101799.41
2023-01-29T18:15:29.861Z,101783.06
2023-01-29T18:20:45.068Z,101778.25
2023-01-29T18:25:59.810Z,101760.09
2023-01-29T18:31:15.117Z,101759.09
2023-01-29T18:36:30.118Z,101749.31
2023-01-29T18:41:45.035Z,101745.56
2023-01-29T18:47:00.413Z,101738.31
2023-01-29T18:52:15.819Z,101741.34
2023-01-29T18:58:27.239Z,101713.84
2023-01-29T19:03:06.487Z,101701.78
2023-01-29T19:08:22.072Z,101697.75
2023-01-29T19:13:38.083Z,101681.63
2023-01-29T19:18:53.408Z,101667.28
2023-01-29T19:24:09.036Z,101665.53
2023-01-29T19:29:24.092Z,101643.09
2023-01-29T19:34:39.081Z,101642.13
2023-01-29T19:39:54.098Z,101648.44
2023-01-29T19:45:08.845Z,101644.41
2023-01-29T19:50:24.115Z,101650.97
2023-01-29T19:55:39.375Z,101640.38
2023-01-29T20:00:55.205Z,101647.22
2023-01-29T20:06:09.828Z,101633.63
2023-01-29T20:11:24.866Z,101624.03
2023-01-29T20:16:40.466Z,101631.59
2023-01-29T20:21:56.143Z,101628.06
2023-01-29T20:27:11.141Z,101609.66
2023-01-29T20:32:26.210Z,101623.06
2023-01-29T20:37:41.430Z,101624.06
2023-01-29T20:42:57.097Z,101610.47
2023-01-29T20:48:11.860Z,101597.81
2023-01-29T20:53:27.427Z,101610.94
2023-01-29T20:58:42.867Z,101622.13
2023-01-29T21:03:58.149Z,101614.78
2023-01-29T21:09:13.433Z,101611.25
2023-01-29T21:14:29.124Z,101593.09
2023-01-29T21:19:44.129Z,101600.13
2023-01-29T21:24:59.064Z,101596.66
2023-01-29T21:30:14.047Z,101610.34
2023-01-29T21:35:28.824Z,101603.25
2023-01-29T21:40:44.054Z,101609.31
2023-01-29T21:45:59.133Z,101601.72
2023-01-29T21:51:14.128Z,101598.19
2023-01-29T21:56:28.811Z,101575.44
2023-01-29T22:01:44.605Z,101551.19
2023-01-29T22:07:00.107Z,101512.75
2023-01-29T22:12:15.325Z,101502.44
2023-01-29T22:17:31.064Z,101479.44
2023-01-29T22:22:45.811Z,101476.41
2023-01-29T22:28:01.074Z,101495.34
2023-01-29T22:33:16.072Z,101488.56
2023-01-29T22:38:30.810Z,101467.09
2023-01-29T22:43:46.056Z,101460.28
2023-01-29T22:49:01.110Z,101446.88
2023-01-29T22:54:16.159Z,101439.78
2023-01-29T22:59:31.053Z,101432.22
2023-01-29T23:04:46.102Z,101427.44
2023-01-29T23:10:00.841Z,101415.06
2023-01-29T23:15:16.057Z,101424.16
2023-01-29T23:20:31.038Z,101422.88
2023-01-29T23:25:46.151Z,101406.50
2023-01-29T23:31:01.524Z,101409.25
2023-01-29T23:36:17.048Z,101392.84
2023-01-29T23:41:32.094Z,101387.56
2023-01-29T23:46:47.433Z,101359.03
2023-01-29T23:52:03.042Z,101343.88
2023-01-29T23:57:18.069Z,101333.25
